Time;durP1;ratioP1;P1;durP2;ratioP2;P2;SDS_P1;SDS_P2;PMS_P1;PMS_P2;Temp;Humidity;BMP_temperature;BMP_pressure;BME280_temperature;BME280_humidity;BME280_pressure;Samples;Min_cycle;Max_cycle;Signal;HPM_P1;HPM_P2
2023/08/01 00:00:35;;;;;;;10.55;3.10;;;16.70;99.90;;;;;;4215060;28;20128;-80
2023/08/01 00:02:36;;;;;;;10.65;2.55;;;16.80;99.90;;;;;;4231385;28;20042;-80
2023/08/01 00:04:37;;;;;;;8.70;2.60;;;16.70;99.90;;;;;;4231195;28;20517;-80
2023/08/01 00:06:38;;;;;;;15.55;4.15;;;16.70;99.90;;;;;;4232309;28;20047;-80
2023/08/01 00:08:38;;;;;;;17.70;3.38;;;16.70;99.90;;;;;;4229918;28;20317;-80
2023/08/01 00:10:40;;;;;;;12.43;3.53;;;16.70;99.90;;;;;;4230345;28;20051;-79
2023/08/01 00:12:41;;;;;;;10.75;3.30;;;16.70;99.90;;;;;;4230387;28;20039;-80
2023/08/01 00:14:42;;;;;;;15.00;3.13;;;16.70;99.90;;;;;;4232036;28;20047;-80
2023/08/01 00:16:42;;;;;;;13.65;2.80;;;16.70;99.90;;;;;;4231561;28;20131;-80
2023/08/01 00:18:43;;;;;;;10.25;2.67;;;16.70;99.90;;;;;;4231557;28;20047;-80
2023/08/01 00:20:44;;;;;;;9.75;2.47;;;16.70;99.90;;;;;;4231937;28;20130;-80
2023/08/01 00:22:45;;;;;;;10.85;2.70;;;16.70;99.90;;;;;;4231750;28;20073;-80
2023/08/01 00:24:47;;;;;;;6.82;2.78;;;16.60;99.90;;;;;;4230661;28;20044;-80
2023/08/01 00:26:48;;;;;;;9.10;2.47;;;16.60;99.90;;;;;;4231868;28;20043;-80
2023/08/01 00:28:48;;;;;;;9.43;3.10;;;16.50;99.90;;;;;;4229617;28;20442;-80
2023/08/01 00:30:49;;;;;;;8.48;2.47;;;16.50;99.90;;;;;;4230604;28;20051;-80
2023/08/01 00:32:50;;;;;;;7.85;2.35;;;16.50;99.90;;;;;;4230119;28;20079;-80
2023/08/01 00:34:51;;;;;;;8.13;2.38;;;16.50;99.90;;;;;;4230454;28;20043;-79
2023/08/01 00:36:52;;;;;;;8.35;2.38;;;16.40;99.90;;;;;;4230270;28;20055;-80
2023/08/01 00:38:53;;;;;;;9.15;2.80;;;16.40;99.90;;;;;;4230088;28;20056;-80
2023/08/01 00:40:54;;;;;;;6.68;2.60;;;16.40;99.90;;;;;;4230361;28;20119;-80
2023/08/01 00:42:56;;;;;;;8.70;2.63;;;16.40;99.90;;;;;;4231336;28;20036;-80
2023/08/01 00:44:57;;;;;;;8.95;2.58;;;16.40;99.90;;;;;;4230122;28;20523;-80
2023/08/01 00:46:57;;;;;;;13.77;2.65;;;16.40;99.90;;;;;;4230011;28;20113;-80
2023/08/01 00:49:00;;;;;;;8.98;2.50;;;16.40;99.90;;;;;;4229822;28;20058;-80
2023/08/01 00:51:04;;;;;;;5.55;2.33;;;16.30;99.90;;;;;;4230832;28;20467;-80
2023/08/01 00:53:05;;;;;;;6.22;2.65;;;16.30;99.90;;;;;;4231359;28;20040;-80
2023/08/01 00:55:07;;;;;;;9.10;2.60;;;16.30;99.90;;;;;;4230010;28;20511;-80
2023/08/01 00:57:09;;;;;;;7.55;2.00;;;16.30;99.90;;;;;;4231282;28;20039;-80
2023/08/01 00:59:10;;;;;;;10.20;2.75;;;16.30;99.90;;;;;;4229777;28;20061;-80
2023/08/01 01:01:10;;;;;;;7.82;2.40;;;16.30;99.90;;;;;;4229538;28;20578;-80
2023/08/01 01:03:12;;;;;;;7.28;2.40;;;16.30;99.90;;;;;;4230146;28;20052;-80
2023/08/01 01:05:13;;;;;;;6.13;2.13;;;16.20;99.90;;;;;;4190722;28;1125893;-80
2023/08/01 01:07:17;;;;;;;6.63;1.95;;;16.20;99.90;;;;;;4232037;28;20491;-80
2023/08/01 01:09:19;;;;;;;7.57;2.50;;;16.20;99.90;;;;;;4232075;28;20066;-80
2023/08/01 01:11:20;;;;;;;5.68;1.90;;;16.20;99.90;;;;;;4232336;28;20074;-80
2023/08/01 01:13:20;;;;;;;6.28;2.55;;;16.20;99.90;;;;;;4230821;28;20044;-80
2023/08/01 01:15:21;;;;;;;6.30;2.47;;;16.20;99.90;;;;;;4230061;28;20050;-80
2023/08/01 01:17:22;;;;;;;9.45;2.75;;;16.10;99.90;;;;;;4230452;28;20051;-80
2023/08/01 01:19:22;;;;;;;9.00;2.88;;;16.10;99.90;;;;;;4232264;28;20093;-80
2023/08/01 01:21:23;;;;;;;7.20;2.30;;;16.10;99.90;;;;;;4213377;28;20109;-80
2023/08/01 01:23:25;;;;;;;7.85;2.50;;;16.10;99.90;;;;;;4230123;28;20106;-80
2023/08/01 01:25:27;;;;;;;9.60;2.63;;;16.00;99.90;;;;;;4231472;27;20075;-80
2023/08/01 01:27:29;;;;;;;6.13;2.10;;;16.00;99.90;;;;;;4230204;28;20122;-80
2023/08/01 01:29:32;;;;;;;5.95;2.28;;;16.00;99.90;;;;;;4213715;28;20063;-80
2023/08/01 01:31:34;;;;;;;5.78;1.88;;;16.00;99.90;;;;;;4231674;27;20050;-80
2023/08/01 01:33:35;;;;;;;8.90;2.35;;;15.90;99.90;;;;;;4230121;28;20071;-80
2023/08/01 01:35:36;;;;;;;5.72;2.22;;;15.90;99.90;;;;;;4231686;28;20047;-80
2023/08/01 01:37:36;;;;;;;13.95;2.80;;;15.90;99.90;;;;;;4231044;28;20090;-79
2023/08/01 01:39:37;;;;;;;9.60;2.30;;;15.90;99.90;;;;;;4231289;28;20039;-79
2023/08/01 01:41:38;;;;;;;10.43;1.83;;;15.80;99.90;;;;;;4217575;28;20039;-80
2023/08/01 01:43:38;;;;;;;10.43;2.95;;;15.80;99.90;;;;;;4229705;28;20047;-80
2023/08/01 01:45:39;;;;;;;9.98;2.42;;;15.80;99.90;;;;;;4231397;28;20040;-80
2023/08/01 01:47:40;;;;;;;6.35;2.45;;;15.80;99.90;;;;;;4229780;28;20096;-80
2023/08/01 01:49:40;;;;;;;8.82;2.30;;;15.80;99.90;;;;;;4231375;28;20043;-80
2023/08/01 01:51:41;;;;;;;8.23;2.50;;;15.80;99.90;;;;;;4230895;28;20035;-80
2023/08/01 01:53:42;;;;;;;7.70;2.22;;;15.70;99.90;;;;;;4230879;28;20043;-79
2023/08/01 01:55:43;;;;;;;11.85;2.42;;;15.70;99.90;;;;;;4231238;28;20083;-80
2023/08/01 01:57:44;;;;;;;6.03;1.95;;;15.70;99.90;;;;;;4230998;28;20052;-80
2023/08/01 01:59:44;;;;;;;6.50;2.63;;;15.70;99.90;;;;;;4230175;28;20466;-80
2023/08/01 02:01:45;;;;;;;8.60;2.13;;;15.70;99.90;;;;;;4231245;28;20032;-80
2023/08/01 02:03:46;;;;;;;7.43;2.38;;;15.70;99.90;;;;;;4229810;28;20035;-80
2023/08/01 02:05:46;;;;;;;11.60;2.90;;;15.70;99.90;;;;;;4213304;28;20131;-80
2023/08/01 02:07:47;;;;;;;9.82;2.60;;;15.70;99.90;;;;;;4230555;28;20045;-80
2023/08/01 02:09:48;;;;;;;9.60;3.05;;;15.70;99.90;;;;;;4230996;28;20043;-80
2023/08/01 02:11:49;;;;;;;8.65;2.30;;;15.70;99.90;;;;;;4230917;28;20043;-80
2023/08/01 02:13:50;;;;;;;10.90;2.70;;;15.70;99.90;;;;;;4228862;28;20505;-80
2023/08/01 02:15:51;;;;;;;7.15;2.63;;;15.60;99.90;;;;;;4230964;28;20067;-80
2023/08/01 02:17:51;;;;;;;6.88;2.75;;;15.60;99.90;;;;;;4230514;28;20047;-80
2023/08/01 02:19:52;;;;;;;11.15;2.88;;;15.60;99.90;;;;;;4230823;28;20047;-80
2023/08/01 02:21:53;;;;;;;7.78;2.42;;;15.60;99.90;;;;;;4230858;28;20132;-80
2023/08/01 02:23:54;;;;;;;5.57;2.72;;;15.50;99.90;;;;;;4228999;28;20051;-80
2023/08/01 02:25:55;;;;;;;9.88;3.13;;;15.50;99.90;;;;;;4229724;28;20453;-80
2023/08/01 02:27:56;;;;;;;8.38;2.65;;;15.50;99.90;;;;;;4229445;28;20537;-80
2023/08/01 02:29:57;;;;;;;7.78;2.80;;;15.50;99.90;;;;;;4212754;28;20086;-80
2023/08/01 02:31:58;;;;;;;13.15;2.67;;;15.40;99.90;;;;;;4229094;28;20047;-80
2023/08/01 02:33:58;;;;;;;11.07;2.75;;;15.40;99.90;;;;;;4230005;28;20042;-80
2023/08/01 02:35:59;;;;;;;6.43;2.50;;;15.40;99.90;;;;;;4229677;28;20465;-80
2023/08/01 02:37:59;;;;;;;11.38;2.60;;;15.40;99.90;;;;;;4212613;28;20059;-80
2023/08/01 02:40:06;;;;;;;10.88;3.58;;;15.30;99.90;;;;;;4230061;28;20087;-80
2023/08/01 02:42:08;;;;;;;8.73;2.70;;;15.30;99.90;;;;;;4230491;28;20423;-80
2023/08/01 02:44:08;;;;;;;8.75;3.28;;;15.30;99.90;;;;;;4230269;28;20043;-80
2023/08/01 02:46:10;;;;;;;7.10;3.47;;;15.30;99.90;;;;;;4229880;28;20050;-81
2023/08/01 02:48:11;;;;;;;13.05;2.92;;;15.30;99.90;;;;;;4231918;28;20518;-80
2023/08/01 02:50:11;;;;;;;7.65;2.63;;;15.20;99.90;;;;;;4231430;28;20115;-80
2023/08/01 02:52:12;;;;;;;8.80;2.65;;;15.20;99.90;;;;;;4231451;28;20074;-82
2023/08/01 02:54:13;;;;;;;11.13;3.10;;;15.30;99.90;;;;;;4229852;28;20040;-81
2023/08/01 02:56:13;;;;;;;8.20;2.65;;;15.20;99.90;;;;;;4228819;28;20059;-81
2023/08/01 02:58:14;;;;;;;10.05;2.95;;;15.20;99.90;;;;;;4229057;28;20086;-81
2023/08/01 03:00:17;;;;;;;8.35;2.58;;;15.20;99.90;;;;;;4229267;28;20051;-81
2023/08/01 03:02:18;;;;;;;5.85;2.15;;;15.20;99.90;;;;;;4230629;28;20043;-81
2023/08/01 03:04:18;;;;;;;10.70;2.50;;;15.20;99.90;;;;;;4229133;28;20411;-81
2023/08/01 03:06:20;;;;;;;8.73;3.10;;;15.20;99.90;;;;;;4230176;28;20100;-81
2023/08/01 03:08:21;;;;;;;7.32;2.55;;;15.20;99.90;;;;;;4230324;28;20043;-81
2023/08/01 03:10:21;;;;;;;9.48;2.58;;;15.20;99.90;;;;;;4230239;28;20503;-81
2023/08/01 03:12:22;;;;;;;7.53;2.30;;;15.20;99.90;;;;;;4212593;28;20557;-81
2023/08/01 03:14:22;;;;;;;5.20;2.28;;;15.20;99.90;;;;;;4230412;28;20075;-81
2023/08/01 03:16:23;;;;;;;7.47;2.65;;;15.30;99.90;;;;;;4230139;28;20046;-81
2023/08/01 03:18:24;;;;;;;9.48;2.45;;;15.30;99.90;;;;;;4229103;28;20073;-81
2023/08/01 03:20:24;;;;;;;8.73;2.58;;;15.30;99.90;;;;;;4229531;28;20047;-81
2023/08/01 03:22:25;;;;;;;9.68;2.78;;;15.30;99.90;;;;;;4229169;28;20457;-81
2023/08/01 03:24:26;;;;;;;11.82;3.20;;;15.30;99.90;;;;;;4230252;28;20039;-81
2023/08/01 03:26:28;;;;;;;11.85;3.22;;;15.30;99.90;;;;;;4230234;28;20395;-80
2023/08/01 03:28:29;;;;;;;8.10;3.13;;;15.40;99.90;;;;;;4230811;28;20062;-80
2023/08/01 03:30:32;;;;;;;11.27;2.92;;;15.40;99.90;;;;;;4230330;28;20588;-81
2023/08/01 03:32:32;;;;;;;10.10;2.58;;;15.40;99.90;;;;;;4229408;28;20523;-80
2023/08/01 03:34:33;;;;;;;10.43;3.00;;;15.40;99.90;;;;;;4229275;28;20138;-80
2023/08/01 03:36:34;;;;;;;9.25;3.42;;;15.40;99.90;;;;;;4230386;28;20050;-80
2023/08/01 03:38:35;;;;;;;10.00;2.58;;;15.40;99.90;;;;;;4230082;28;20396;-81
2023/08/01 03:40:36;;;;;;;11.85;2.83;;;15.30;99.90;;;;;;4212106;28;20044;-80
2023/08/01 03:42:37;;;;;;;12.18;3.47;;;15.40;99.90;;;;;;4228635;28;20513;-80
2023/08/01 03:44:38;;;;;;;10.85;3.60;;;15.40;99.90;;;;;;4230598;28;20131;-80
2023/08/01 03:46:38;;;;;;;10.40;3.10;;;15.30;99.90;;;;;;4232403;28;20388;-80
2023/08/01 03:48:39;;;;;;;8.57;2.85;;;15.30;99.90;;;;;;4233385;28;20092;-80
2023/08/01 03:50:40;;;;;;;8.43;3.05;;;15.30;99.90;;;;;;4231860;28;20040;-80
2023/08/01 03:52:41;;;;;;;10.82;3.65;;;15.30;99.90;;;;;;4231369;28;20039;-80
2023/08/01 03:54:41;;;;;;;9.25;3.17;;;15.30;99.90;;;;;;4232509;28;20083;-81
2023/08/01 03:56:43;;;;;;;11.48;3.53;;;15.30;99.90;;;;;;4231861;28;20047;-80
2023/08/01 03:58:43;;;;;;;10.82;3.88;;;15.30;99.90;;;;;;4214598;28;20535;-81
2023/08/01 04:00:45;;;;;;;7.68;2.67;;;15.30;99.90;;;;;;4231733;28;20123;-81
2023/08/01 04:02:46;;;;;;;6.45;3.13;;;15.30;99.90;;;;;;4230748;28;20044;-80
2023/08/01 04:04:46;;;;;;;8.82;2.65;;;15.30;99.90;;;;;;4231640;28;20468;-80
2023/08/01 04:06:47;;;;;;;8.02;2.80;;;15.30;99.90;;;;;;4232820;28;20122;-80
2023/08/01 04:08:48;;;;;;;9.30;3.15;;;15.30;99.90;;;;;;4231160;28;20506;-80
2023/08/01 04:10:50;;;;;;;10.27;2.90;;;15.30;99.90;;;;;;4233197;28;20039;-80
2023/08/01 04:12:50;;;;;;;8.35;2.78;;;15.30;99.90;;;;;;4232318;28;20048;-80
2023/08/01 04:14:51;;;;;;;8.07;2.75;;;15.30;99.90;;;;;;4231774;28;20077;-80
2023/08/01 04:16:53;;;;;;;7.95;2.75;;;15.20;99.90;;;;;;4231490;28;20515;-81
2023/08/01 04:18:54;;;;;;;7.70;2.72;;;15.20;99.90;;;;;;4231672;28;20039;-80
2023/08/01 04:20:55;;;;;;;6.97;2.45;;;15.20;99.90;;;;;;4232914;28;20062;-80
2023/08/01 04:22:56;;;;;;;7.63;2.47;;;15.20;99.90;;;;;;4232577;28;20435;-81
2023/08/01 04:24:57;;;;;;;8.10;2.10;;;15.20;99.90;;;;;;4232542;28;20039;-81
2023/08/01 04:26:57;;;;;;;6.60;2.47;;;15.20;99.90;;;;;;4232684;28;20043;-81
2023/08/01 04:28:58;;;;;;;9.88;2.20;;;15.20;99.90;;;;;;4232180;28;20044;-80
2023/08/01 04:30:59;;;;;;;4.45;1.77;;;15.20;99.90;;;;;;4214802;28;20052;-80
2023/08/01 04:32:59;;;;;;;6.15;1.70;;;15.20;99.90;;;;;;4230908;28;20043;-80
2023/08/01 04:35:00;;;;;;;10.25;1.75;;;15.20;99.90;;;;;;4214616;28;20048;-81
2023/08/01 04:37:00;;;;;;;9.73;2.17;;;15.20;99.90;;;;;;4231465;28;20134;-80
2023/08/01 04:39:01;;;;;;;4.82;1.75;;;15.20;99.90;;;;;;4230525;28;20139;-81
2023/08/01 04:41:02;;;;;;;7.90;2.00;;;15.20;99.90;;;;;;4232362;28;20050;-80
2023/08/01 04:43:03;;;;;;;4.28;1.63;;;15.20;99.90;;;;;;4230896;28;20411;-80
2023/08/01 04:45:06;;;;;;;9.15;1.67;;;15.20;99.90;;;;;;4231239;28;20079;-80
2023/08/01 04:47:08;;;;;;;5.88;1.80;;;15.20;99.90;;;;;;4230642;28;20131;-79
2023/08/01 04:49:08;;;;;;;7.18;1.77;;;15.20;99.90;;;;;;4230937;28;20138;-80
2023/08/01 04:51:09;;;;;;;6.82;1.35;;;14.70;99.90;;;;;;4231260;28;20063;-80
2023/08/01 04:53:11;;;;;;;8.13;2.22;;;15.20;99.90;;;;;;4230806;28;20059;-80
2023/08/01 04:55:12;;;;;;;5.50;1.88;;;15.20;99.90;;;;;;4231062;28;20044;-80
2023/08/01 04:57:12;;;;;;;8.43;1.83;;;15.20;99.90;;;;;;4229632;28;20112;-80
2023/08/01 04:59:13;;;;;;;3.00;1.67;;;15.20;99.90;;;;;;4230545;28;20047;-80
2023/08/01 05:01:15;;;;;;;7.55;1.67;;;15.20;99.90;;;;;;4232412;28;20117;-80
2023/08/01 05:03:15;;;;;;;5.97;1.65;;;15.20;99.90;;;;;;4230557;28;20048;-80
2023/08/01 05:05:16;;;;;;;10.18;1.70;;;15.30;99.90;;;;;;4231026;28;20461;-80
2023/08/01 05:07:17;;;;;;;8.55;1.50;;;15.30;99.90;;;;;;4232184;28;20075;-80
2023/08/01 05:09:17;;;;;;;6.90;1.85;;;15.30;99.90;;;;;;4230397;28;20419;-80
2023/08/01 05:11:18;;;;;;;7.18;1.60;;;15.30;99.90;;;;;;4213292;28;20082;-80
2023/08/01 05:13:19;;;;;;;3.88;1.77;;;15.30;99.90;;;;;;4230561;28;20048;-80
2023/08/01 05:15:20;;;;;;;11.07;1.88;;;15.40;99.90;;;;;;4213660;28;20078;-80
2023/08/01 05:17:22;;;;;;;7.95;1.40;;;15.50;99.90;;;;;;4231694;28;20040;-80
2023/08/01 05:19:22;;;;;;;5.95;1.23;;;15.60;99.90;;;;;;4231612;28;20404;-80
2023/08/01 05:21:23;;;;;;;6.50;1.20;;;15.70;99.90;;;;;;4231679;28;20043;-80
2023/08/01 05:23:24;;;;;;;6.57;1.60;;;15.80;99.90;;;;;;4231451;28;20039;-80
2023/08/01 05:25:25;;;;;;;5.45;1.23;;;15.90;99.90;;;;;;4231704;28;20051;-80
2023/08/01 05:27:25;;;;;;;6.88;1.10;;;15.90;99.90;;;;;;4230691;28;20044;-80
2023/08/01 05:29:26;;;;;;;10.02;1.25;;;15.90;99.90;;;;;;4230121;28;20098;-80
2023/08/01 05:31:27;;;;;;;4.35;1.02;;;15.90;99.90;;;;;;4231719;28;20191;-80
2023/08/01 05:33:27;;;;;;;4.82;1.52;;;15.90;99.90;;;;;;4231661;28;20043;-80
2023/08/01 05:35:28;;;;;;;6.00;1.65;;;15.90;99.90;;;;;;4231699;28;20051;-80
2023/08/01 05:37:29;;;;;;;7.07;1.38;;;15.80;99.90;;;;;;4231559;28;20050;-80
2023/08/01 05:39:29;;;;;;;6.68;1.50;;;15.80;99.90;;;;;;4230050;28;20056;-80
2023/08/01 05:41:30;;;;;;;7.85;1.10;;;15.80;99.90;;;;;;4229882;28;20039;-80
2023/08/01 05:43:31;;;;;;;5.60;1.20;;;15.70;99.90;;;;;;4229994;28;20144;-80
2023/08/01 05:45:31;;;;;;;7.95;1.85;;;15.70;99.90;;;;;;4230264;28;20422;-80
2023/08/01 05:47:32;;;;;;;5.72;1.20;;;15.70;99.90;;;;;;4230256;28;20537;-80
2023/08/01 05:49:33;;;;;;;4.85;1.30;;;15.70;99.90;;;;;;4230064;28;20075;-80
2023/08/01 05:51:34;;;;;;;4.80;1.55;;;15.60;99.90;;;;;;4213223;28;20109;-80
2023/08/01 05:53:34;;;;;;;3.63;1.40;;;15.60;99.90;;;;;;4229536;28;20138;-80
2023/08/01 05:55:35;;;;;;;4.93;1.27;;;15.60;99.90;;;;;;4231275;28;20126;-80
2023/08/01 05:57:36;;;;;;;3.95;1.42;;;15.60;99.90;;;;;;4229897;28;20044;-80
2023/08/01 05:59:37;;;;;;;5.95;1.25;;;15.60;99.90;;;;;;4229930;28;20548;-80
2023/08/01 06:01:37;;;;;;;5.30;2.38;;;15.60;99.90;;;;;;4229900;28;20051;-80
2023/08/01 06:03:38;;;;;;;9.10;1.25;;;15.70;99.90;;;;;;4230083;28;20563;-80
2023/08/01 06:05:39;;;;;;;6.38;1.40;;;15.70;99.90;;;;;;4229928;28;20113;-80
2023/08/01 06:07:40;;;;;;;4.07;1.27;;;15.80;99.90;;;;;;4230356;28;20097;-80
2023/08/01 06:09:40;;;;;;;7.38;2.15;;;15.80;99.90;;;;;;4229634;28;20491;-80
2023/08/01 06:11:41;;;;;;;7.85;1.60;;;15.90;99.90;;;;;;4229548;28;20082;-80
2023/08/01 06:13:42;;;;;;;3.17;1.30;;;15.90;99.90;;;;;;4229888;28;20044;-80
2023/08/01 06:15:42;;;;;;;7.10;1.75;;;15.90;99.90;;;;;;4229575;28;20479;-80
2023/08/01 06:17:43;;;;;;;2.25;1.27;;;15.80;99.90;;;;;;4230851;28;20099;-80
2023/08/01 06:19:44;;;;;;;3.03;1.63;;;15.80;99.90;;;;;;4212554;28;20035;-80
2023/08/01 06:21:44;;;;;;;3.50;1.15;;;15.80;99.90;;;;;;4229052;28;20567;-80
2023/08/01 06:23:45;;;;;;;5.78;1.60;;;15.70;99.90;;;;;;4229419;28;20081;-80
2023/08/01 06:25:46;;;;;;;6.38;1.48;;;15.70;99.90;;;;;;4229565;28;20044;-80
2023/08/01 06:27:47;;;;;;;3.40;1.30;;;15.70;99.90;;;;;;4230705;28;20119;-80
2023/08/01 06:29:48;;;;;;;4.85;1.40;;;15.70;99.90;;;;;;4230876;28;20079;-79
2023/08/01 06:31:49;;;;;;;3.10;1.27;;;15.70;99.90;;;;;;4230989;28;20046;-80
2023/08/01 06:33:49;;;;;;;4.93;1.55;;;15.70;99.90;;;;;;4230633;28;20088;-80
2023/08/01 06:35:50;;;;;;;5.72;1.42;;;15.70;99.90;;;;;;4229348;28;20050;-80
2023/08/01 06:37:51;;;;;;;4.15;1.33;;;15.70;99.90;;;;;;4228721;28;20424;-80
2023/08/01 06:39:54;;;;;;;5.88;1.35;;;15.70;99.90;;;;;;4229656;28;20395;-80
2023/08/01 06:41:54;;;;;;;5.97;1.27;;;15.70;99.90;;;;;;4230429;28;20105;-80
2023/08/01 06:43:55;;;;;;;3.97;1.55;;;15.70;99.90;;;;;;4230373;28;20126;-79
2023/08/01 06:45:56;;;;;;;3.28;1.20;;;15.70;99.90;;;;;;4229531;28;20039;-79
2023/08/01 06:47:56;;;;;;;2.80;1.15;;;15.70;99.90;;;;;;4228469;28;20097;-79
2023/08/01 06:49:57;;;;;;;2.45;1.10;;;15.70;99.90;;;;;;4230859;28;20079;-79
2023/08/01 06:51:58;;;;;;;2.00;1.13;;;15.70;99.90;;;;;;4230918;28;20048;-79
2023/08/01 06:53:58;;;;;;;2.47;1.00;;;15.70;99.90;;;;;;4231285;28;20123;-79
2023/08/01 06:55:59;;;;;;;5.30;1.35;;;15.70;99.90;;;;;;4231455;28;20039;-79
2023/08/01 06:58:00;;;;;;;4.25;1.70;;;15.70;99.90;;;;;;4230279;28;20118;-79
2023/08/01 07:00:00;;;;;;;2.55;1.05;;;15.70;99.90;;;;;;4230115;28;20100;-79
2023/08/01 07:02:01;;;;;;;2.45;1.13;;;15.80;99.90;;;;;;4230320;28;20039;-79
2023/08/01 07:04:02;;;;;;;4.18;1.10;;;15.80;99.90;;;;;;4230201;28;20045;-79
2023/08/01 07:06:03;;;;;;;1.63;0.93;;;15.90;99.90;;;;;;4229373;28;20042;-79
2023/08/01 07:08:04;;;;;;;2.80;1.02;;;15.90;99.90;;;;;;4230086;28;20501;-79
2023/08/01 07:10:05;;;;;;;3.58;1.10;;;16.00;99.90;;;;;;4229346;28;20459;-79
2023/08/01 07:12:06;;;;;;;2.17;1.00;;;16.00;99.90;;;;;;4211856;28;20055;-79
2023/08/01 07:14:07;;;;;;;3.10;1.02;;;16.10;99.90;;;;;;4230368;28;20046;-79
2023/08/01 07:16:07;;;;;;;2.50;1.23;;;16.10;99.90;;;;;;4229373;28;20126;-80
2023/08/01 07:18:08;;;;;;;2.70;0.90;;;16.10;99.90;;;;;;4229186;28;20135;-79
2023/08/01 07:20:09;;;;;;;3.90;0.95;;;16.20;99.90;;;;;;4230936;28;20035;-79
2023/08/01 07:22:11;;;;;;;2.58;1.30;;;16.20;99.90;;;;;;4233698;28;20095;-79
2023/08/01 07:24:13;;;;;;;6.40;1.10;;;16.30;99.90;;;;;;4233509;28;20035;-79
2023/08/01 07:26:14;;;;;;;3.22;1.10;;;16.40;99.90;;;;;;4232740;28;20189;-79
2023/08/01 07:28:15;;;;;;;3.22;0.80;;;16.50;99.90;;;;;;4233179;28;20483;-79
2023/08/01 07:30:15;;;;;;;2.95;0.75;;;16.60;99.90;;;;;;4215460;28;20117;-79
2023/08/01 07:32:16;;;;;;;3.58;0.98;;;16.80;99.90;;;;;;4233820;28;20122;-79
2023/08/01 07:34:17;;;;;;;3.67;0.95;;;16.80;99.90;;;;;;4233343;28;20094;-79
2023/08/01 07:36:17;;;;;;;2.85;0.88;;;16.80;99.90;;;;;;4233850;28;20039;-79
2023/08/01 07:38:18;;;;;;;3.47;1.10;;;16.80;99.90;;;;;;4232071;28;20132;-79
2023/08/01 07:40:19;;;;;;;2.10;0.60;;;16.80;99.90;;;;;;4231665;28;20082;-79
2023/08/01 07:42:19;;;;;;;1.60;0.70;;;16.80;99.90;;;;;;4232126;28;20051;-79
2023/08/01 07:44:20;;;;;;;3.03;0.70;;;16.80;99.90;;;;;;4215035;28;20488;-79
2023/08/01 07:46:21;;;;;;;4.82;1.00;;;16.80;99.90;;;;;;4231958;28;20134;-79
2023/08/01 07:48:21;;;;;;;3.25;0.80;;;16.70;99.90;;;;;;4232847;28;20510;-79
2023/08/01 07:50:22;;;;;;;5.68;0.70;;;16.60;99.90;;;;;;4232119;28;20048;-79
2023/08/01 07:52:23;;;;;;;2.17;0.63;;;16.50;99.90;;;;;;4231977;28;20083;-79
2023/08/01 07:54:24;;;;;;;8.68;1.05;;;16.40;99.90;;;;;;4231947;28;20103;-79
2023/08/01 07:56:25;;;;;;;5.53;0.90;;;16.40;99.90;;;;;;4215264;28;20057;-79
2023/08/01 07:58:25;;;;;;;6.13;0.77;;;16.30;99.90;;;;;;4232975;28;20054;-79
2023/08/01 08:00:26;;;;;;;5.15;0.80;;;16.40;99.90;;;;;;4233525;28;20514;-79
2023/08/01 08:02:27;;;;;;;3.10;0.65;;;16.60;99.90;;;;;;4214599;28;20044;-79
2023/08/01 08:04:28;;;;;;;4.78;0.90;;;16.80;99.90;;;;;;4232738;28;20535;-79
2023/08/01 08:06:29;;;;;;;5.22;0.80;;;17.00;99.90;;;;;;4231904;28;20491;-79
2023/08/01 08:08:30;;;;;;;5.32;0.75;;;17.20;99.90;;;;;;4231597;28;20078;-79
2023/08/01 08:10:31;;;;;;;1.90;0.40;;;17.30;99.90;;;;;;4233024;28;20518;-79
2023/08/01 08:12:32;;;;;;;6.22;0.82;;;17.50;99.90;;;;;;4233194;28;20036;-80
2023/08/01 08:14:32;;;;;;;4.45;0.50;;;17.60;99.90;;;;;;4231123;28;20047;-79
2023/08/01 08:16:34;;;;;;;2.47;0.45;;;17.60;99.90;;;;;;4231465;28;20090;-79
2023/08/01 08:18:35;;;;;;;3.65;0.77;;;17.50;99.90;;;;;;4231507;28;20043;-79
2023/08/01 08:20:45;;;;;;;5.80;1.13;;;17.50;99.90;;;;;;4233032;28;20040;-79
2023/08/01 08:22:45;;;;;;;4.93;0.80;;;17.50;99.90;;;;;;4234133;28;20035;-79
2023/08/01 08:24:46;;;;;;;2.55;0.50;;;17.50;99.90;;;;;;4235020;28;20100;-79
2023/08/01 08:26:47;;;;;;;6.07;0.80;;;17.60;99.90;;;;;;4216110;28;20416;-79
2023/08/01 08:28:47;;;;;;;2.95;0.63;;;17.60;99.90;;;;;;4231122;28;20055;-80
2023/08/01 08:30:48;;;;;;;4.80;0.98;;;17.50;99.90;;;;;;4232868;28;20043;-79
2023/08/01 08:32:50;;;;;;;0.90;0.70;;;17.50;99.90;;;;;;4214671;28;20056;-79
2023/08/01 08:34:50;;;;;;;1.83;0.52;;;17.30;99.90;;;;;;4231119;28;20131;-80
2023/08/01 08:36:52;;;;;;;3.00;0.55;;;17.10;99.90;;;;;;4232552;28;20499;-79
2023/08/01 08:38:54;;;;;;;5.85;0.80;;;17.00;99.90;;;;;;4214152;28;20492;-79
2023/08/01 08:41:00;;;;;;;4.18;0.80;;;16.80;99.90;;;;;;4231779;28;20096;-78
2023/08/01 08:43:05;;;;;;;8.15;1.55;;;16.80;99.90;;;;;;4232209;28;20046;-79
2023/08/01 08:45:06;;;;;;;2.63;0.90;;;16.70;99.90;;;;;;4232489;28;20043;-79
2023/08/01 08:47:08;;;;;;;2.00;0.73;;;16.60;99.90;;;;;;4231207;28;20051;-79
2023/08/01 08:49:09;;;;;;;3.42;1.10;;;16.50;99.90;;;;;;4231076;28;20075;-79
2023/08/01 08:51:10;;;;;;;3.17;1.38;;;16.40;99.90;;;;;;4231860;28;20112;-79
2023/08/01 08:53:12;;;;;;;1.02;0.40;;;16.30;99.90;;;;;;4232012;28;20495;-79
2023/08/01 08:55:13;;;;;;;3.03;0.57;;;16.20;99.90;;;;;;4232134;28;20109;-79
2023/08/01 08:57:15;;;;;;;2.65;0.50;;;16.20;99.90;;;;;;4231128;28;20047;-79
2023/08/01 08:59:16;;;;;;;4.90;0.70;;;16.20;99.90;;;;;;4230561;28;20128;-79
2023/08/01 09:01:17;;;;;;;6.63;0.93;;;16.30;99.90;;;;;;4230605;28;20144;-79
2023/08/01 09:03:19;;;;;;;3.50;0.90;;;16.40;99.90;;;;;;4230723;28;20442;-79
2023/08/01 09:05:24;;;;;;;1.23;0.63;;;16.60;99.90;;;;;;4230733;28;20113;-79
2023/08/01 09:07:29;;;;;;;4.50;0.82;;;16.70;99.90;;;;;;4230855;28;20518;-79
2023/08/01 09:09:32;;;;;;;5.47;1.33;;;17.00;99.90;;;;;;4230373;28;20044;-79
2023/08/01 09:11:49;;;;;;;4.05;1.02;;;17.30;99.90;;;;;;4230484;28;20039;-79
2023/08/01 09:13:50;;;;;;;3.28;0.55;;;17.60;99.90;;;;;;4232064;28;20106;-79
2023/08/01 09:15:52;;;;;;;4.03;0.70;;;17.90;99.90;;;;;;4230380;28;20050;-79
2023/08/01 09:18:00;;;;;;;2.67;0.90;;;18.30;99.90;;;;;;4230163;28;20047;-79
2023/08/01 09:20:07;;;;;;;3.90;1.10;;;18.50;99.90;;;;;;4230412;28;20118;-80
2023/08/01 09:22:14;;;;;;;6.50;0.90;;;18.50;99.90;;;;;;4231730;28;20042;-79
2023/08/01 09:24:19;;;;;;;0.82;0.50;;;18.20;99.90;;;;;;4229657;28;20059;-79
2023/08/01 09:26:20;;;;;;;5.82;1.17;;;18.00;99.90;;;;;;4230589;28;20055;-79
2023/08/01 09:28:23;;;;;;;5.03;0.95;;;17.90;99.90;;;;;;4230447;28;20590;-79
2023/08/01 09:30:24;;;;;;;7.53;2.65;;;17.80;99.90;;;;;;4230562;28;20047;-79
2023/08/01 09:32:25;;;;;;;5.13;1.02;;;17.70;99.90;;;;;;4230192;28;20048;-80
2023/08/01 09:34:26;;;;;;;2.72;0.70;;;17.60;99.90;;;;;;4230011;28;20531;-79
2023/08/01 09:36:27;;;;;;;3.40;0.60;;;17.50;99.90;;;;;;4230242;28;20110;-79
2023/08/01 09:38:34;;;;;;;0.82;0.40;;;17.40;99.90;;;;;;4231009;28;20048;-79
2023/08/01 09:40:39;;;;;;;3.55;0.68;;;17.30;99.90;;;;;;4231196;28;20333;-80
2023/08/01 09:42:41;;;;;;;3.28;0.47;;;17.10;99.90;;;;;;4230499;28;20050;-80
2023/08/01 09:44:46;;;;;;;3.90;0.77;;;17.00;99.90;;;;;;4230965;28;20048;-79
2023/08/01 09:47:03;;;;;;;2.60;0.70;;;16.90;99.90;;;;;;4229966;28;20447;-79
2023/08/01 09:49:11;;;;;;;4.30;0.95;;;16.90;99.90;;;;;;4231193;28;20126;-80
2023/08/01 09:51:14;;;;;;;0.88;0.45;;;16.90;99.90;;;;;;4231301;28;20047;-79
2023/08/01 09:53:15;;;;;;;1.08;0.45;;;16.90;99.90;;;;;;4230764;28;20043;-80
2023/08/01 09:55:16;;;;;;;1.80;0.40;;;17.00;99.90;;;;;;4230153;28;20051;-80
2023/08/01 09:57:17;;;;;;;3.50;0.98;;;17.30;99.90;;;;;;4213002;28;20044;-79
2023/08/01 09:59:23;;;;;;;5.90;0.57;;;17.80;99.90;;;;;;4229644;28;20084;-79
2023/08/01 10:01:24;;;;;;;2.95;0.77;;;18.30;99.90;;;;;;4220868;28;20052;-79
2023/08/01 10:03:28;;;;;;;6.55;0.70;;;18.50;99.90;;;;;;4241901;28;20096;-79
2023/08/01 10:05:31;;;;;;;4.38;0.80;;;18.80;99.90;;;;;;4242181;28;20065;-79
2023/08/01 10:07:33;;;;;;;2.47;0.60;;;19.20;99.90;;;;;;4235954;28;20455;-79
2023/08/01 10:09:36;;;;;;;3.85;0.80;;;19.60;99.90;;;;;;4232280;28;20499;-79
2023/08/01 10:11:39;;;;;;;2.88;0.70;;;19.90;99.90;;;;;;4230820;28;20048;-79
2023/08/01 10:13:42;;;;;;;3.15;0.68;;;19.90;99.90;;;;;;4231714;28;20071;-79
2023/08/01 10:15:44;;;;;;;3.40;0.90;;;19.90;99.90;;;;;;4235742;28;20433;-79
2023/08/01 10:17:45;;;;;;;4.78;1.00;;;19.80;99.90;;;;;;4230977;28;20501;-79
2023/08/01 10:19:50;;;;;;;1.60;0.82;;;19.90;99.90;;;;;;4231112;28;20411;-80
2023/08/01 10:21:51;;;;;;;2.72;0.60;;;20.20;99.90;;;;;;4229873;28;20093;-79
2023/08/01 10:23:52;;;;;;;2.65;1.02;;;20.30;99.90;;;;;;4229377;28;20492;-79
2023/08/01 10:25:54;;;;;;;5.22;0.75;;;20.30;99.90;;;;;;4229600;28;20047;-79
2023/08/01 10:28:01;;;;;;;4.80;1.15;;;20.10;99.90;;;;;;4229809;28;20130;-80
2023/08/01 10:30:04;;;;;;;4.18;1.10;;;19.60;99.90;;;;;;4231628;28;20043;-80